createdAt,value
2019-03-18T00:02:13.298Z,66.60
2019-03-18T00:04:39.345Z,66.30
2019-03-18T00:07:05.401Z,66.40
2019-03-18T00:09:34.235Z,66.70
2019-03-18T00:12:00.347Z,67.20
2019-03-18T00:14:26.478Z,67.40
2019-03-18T00:16:52.529Z,67.60
2019-03-18T00:19:18.606Z,68.20
2019-03-18T00:21:47.368Z,68.70
2019-03-18T00:24:13.433Z,69.20
2019-03-18T00:26:39.478Z,69.90
2019-03-18T00:29:05.505Z,70.10
2019-03-18T00:31:31.542Z,70.70
2019-03-18T00:33:57.595Z,71.00
2019-03-18T00:36:35.925Z,71.00
2019-03-18T00:39:04.668Z,71.00
2019-03-18T00:41:30.727Z,71.20
2019-03-18T00:43:56.778Z,71.50
2019-03-18T00:46:22.894Z,71.70
2019-03-18T00:48:49.019Z,71.40
2019-03-18T00:51:15.135Z,71.40
2019-03-18T00:53:41.223Z,71.50
2019-03-18T00:56:07.292Z,71.60
2019-03-18T00:58:33.340Z,71.90
2019-03-18T01:00:59.391Z,71.90
2019-03-18T01:03:25.543Z,72.00
2019-03-18T01:05:51.630Z,72.40
2019-03-18T01:08:17.703Z,72.60
2019-03-18T01:10:53.028Z,73.10
2019-03-18T01:13:19.202Z,72.60
2019-03-18T01:15:51.614Z,72.50
2019-03-18T01:18:17.793Z,72.60
2019-03-18T01:20:43.861Z,73.50
2019-03-18T01:23:22.072Z,73.00
2019-03-18T01:25:50.816Z,73.10
2019-03-18T01:28:16.928Z,73.10
2019-03-18T01:30:43.024Z,73.10
2019-03-18T01:33:09.156Z,73.10
2019-03-18T01:35:35.192Z,73.40
2019-03-18T01:38:01.253Z,73.70
2019-03-18T01:40:33.436Z,73.70
2019-03-18T01:43:02.180Z,74.00
2019-03-18T01:45:40.163Z,74.00
2019-03-18T01:47:56.181Z,73.60
2019-03-18T01:50:22.233Z,73.50
2019-03-18T01:52:48.284Z,73.40
2019-03-18T01:55:23.424Z,73.50
2019-03-18T01:57:49.504Z,73.40
2019-03-18T02:00:15.662Z,73.90
2019-03-18T02:02:41.810Z,73.40
2019-03-18T02:05:08.526Z,73.50
2019-03-18T02:07:34.572Z,73.50
2019-03-18T02:10:00.738Z,73.40
2019-03-18T02:12:26.868Z,73.70
2019-03-18T02:14:52.981Z,73.40
2019-03-18T02:17:19.015Z,73.60
2019-03-18T02:19:45.095Z,73.90
2019-03-18T02:22:11.130Z,73.90
2019-03-18T02:24:37.195Z,74.20
2019-03-18T02:27:03.255Z,74.20
2019-03-18T02:29:29.315Z,73.90
2019-03-18T02:31:55.360Z,74.10
2019-03-18T02:34:21.399Z,74.20
2019-03-18T02:36:47.437Z,74.10
2019-03-18T02:39:25.687Z,74.00
2019-03-18T02:41:51.749Z,73.90
2019-03-18T02:44:18.005Z,73.80
2019-03-18T02:46:46.654Z,74.00
2019-03-18T02:49:12.749Z,74.30
2019-03-18T02:51:47.882Z,74.60
2019-03-18T02:54:13.923Z,74.80
2019-03-18T02:56:39.983Z,74.90
2019-03-18T02:59:06.033Z,75.00
2019-03-18T03:01:32.096Z,75.00
2019-03-18T03:03:58.165Z,74.90
2019-03-18T03:06:24.189Z,75.00
2019-03-18T03:08:50.235Z,75.10
2019-03-18T03:11:16.381Z,75.10
2019-03-18T03:13:45.102Z,75.00
2019-03-18T03:16:25.671Z,74.90
2019-03-18T03:18:39.129Z,74.80
2019-03-18T03:21:07.868Z,75.30
2019-03-18T03:23:33.907Z,75.40
2019-03-18T03:25:59.953Z,75.50
2019-03-18T03:28:26.085Z,75.60
2019-03-18T03:30:52.209Z,75.60
2019-03-18T03:33:20.999Z,75.60
2019-03-18T03:35:47.253Z,75.70
2019-03-18T03:38:16.450Z,75.70
2019-03-18T03:40:42.665Z,75.80
2019-03-18T03:43:08.820Z,75.90
2019-03-18T03:45:34.889Z,75.70
2019-03-18T03:48:01.031Z,75.50
2019-03-18T03:50:27.201Z,75.40
2019-03-18T03:52:53.283Z,75.30
2019-03-18T03:55:19.448Z,75.50
2019-03-18T03:57:45.590Z,75.50
2019-03-18T04:00:12.602Z,75.30
2019-03-18T04:02:38.643Z,75.40
2019-03-18T04:05:04.992Z,75.60
2019-03-18T04:07:31.136Z,75.50
2019-03-18T04:09:59.808Z,75.50
2019-03-18T04:12:28.528Z,75.50
2019-03-18T04:14:54.593Z,75.70
2019-03-18T04:17:20.648Z,75.60
2019-03-18T04:19:46.792Z,75.50
2019-03-18T04:22:22.089Z,75.20
2019-03-18T04:24:48.183Z,75.10
2019-03-18T04:27:14.351Z,75.10
2019-03-18T04:29:40.411Z,75.10
2019-03-18T04:32:06.479Z,75.10
2019-03-18T04:34:32.517Z,75.10
2019-03-18T04:37:07.891Z,75.80
2019-03-18T04:39:36.681Z,75.40
2019-03-18T04:42:02.804Z,75.50
2019-03-18T04:44:28.887Z,75.50
2019-03-18T04:46:57.664Z,75.40
2019-03-18T04:49:24.806Z,75.50
2019-03-18T04:51:53.699Z,75.70
2019-03-18T04:54:22.483Z,75.60
2019-03-18T04:56:48.577Z,75.40
2019-03-18T04:59:14.635Z,75.60
2019-03-18T05:01:43.643Z,75.70
2019-03-18T05:04:09.739Z,75.80
2019-03-18T05:06:35.935Z,76.10
2019-03-18T05:09:03.713Z,76.20
2019-03-18T05:11:29.775Z,76.30
2019-03-18T05:13:55.942Z,76.20
2019-03-18T05:16:22.166Z,76.40
2019-03-18T05:18:48.358Z,76.60
2019-03-18T05:21:14.433Z,76.80
2019-03-18T05:23:40.545Z,76.70
2019-03-18T05:26:09.598Z,76.30
2019-03-18T05:28:35.707Z,76.50
2019-03-18T05:31:01.755Z,76.70
2019-03-18T05:33:30.548Z,76.80
2019-03-18T05:36:11.828Z,76.70
2019-03-18T05:38:37.904Z,76.80
2019-03-18T05:41:06.882Z,76.80
2019-03-18T05:43:32.968Z,76.70
2019-03-18T05:45:59.024Z,76.70
2019-03-18T05:48:25.200Z,76.80
2019-03-18T05:51:06.439Z,76.90
2019-03-18T05:53:32.515Z,77.00
2019-03-18T05:56:04.887Z,76.90
2019-03-18T05:58:33.670Z,76.90
2019-03-18T06:00:59.795Z,76.70
2019-03-18T06:03:26.047Z,76.60
2019-03-18T06:05:55.244Z,77.00
2019-03-18T06:08:21.327Z,77.80
2019-03-18T06:10:50.091Z,77.40
2019-03-18T06:13:18.952Z,77.60
2019-03-18T06:15:45.083Z,78.00
2019-03-18T06:18:13.813Z,77.90
2019-03-18T06:20:42.844Z,77.80
2019-03-18T06:23:08.895Z,77.50
2019-03-18T06:25:34.941Z,77.60
2019-03-18T06:28:04.092Z,77.10
2019-03-18T06:30:39.421Z,77.40
2019-03-18T06:33:05.472Z,77.40
2019-03-18T06:35:43.620Z,78.10
2019-03-18T06:38:09.837Z,77.40
2019-03-18T06:40:47.995Z,77.40
2019-03-18T06:43:14.129Z,77.50
2019-03-18T06:45:46.304Z,77.70
2019-03-18T06:48:15.121Z,77.90
2019-03-18T06:50:41.222Z,78.20
2019-03-18T06:53:07.439Z,78.10
2019-03-18T06:55:33.643Z,78.10
2019-03-18T06:57:59.820Z,78.10
2019-03-18T07:00:25.933Z,77.90
2019-03-18T07:02:52.027Z,77.90
2019-03-18T07:05:20.878Z,78.00
2019-03-18T07:07:49.722Z,78.30
2019-03-18T07:10:34.335Z,78.10
2019-03-18T07:13:03.115Z,78.20
2019-03-18T07:15:31.823Z,78.00
2019-03-18T07:17:57.876Z,77.90
2019-03-18T07:20:23.912Z,78.10
2019-03-18T07:22:52.839Z,78.10
2019-03-18T07:25:19.030Z,77.90
2019-03-18T07:27:45.210Z,77.30
2019-03-18T07:30:13.762Z,77.50
2019-03-18T07:32:52.069Z,77.40
2019-03-18T07:35:20.826Z,77.40
2019-03-18T07:37:49.939Z,77.60
2019-03-18T07:40:16.053Z,77.70
2019-03-18T07:42:42.357Z,77.80
2019-03-18T07:45:09.431Z,78.00
2019-03-18T07:47:35.559Z,78.00
2019-03-18T07:50:06.474Z,78.10
2019-03-18T07:52:35.291Z,78.00
2019-03-18T07:55:16.489Z,77.80
2019-03-18T07:57:43.285Z,77.80
2019-03-18T08:00:10.544Z,77.90
2019-03-18T08:02:52.020Z,78.00
2019-03-18T08:05:20.776Z,78.00
2019-03-18T08:07:46.954Z,78.10
2019-03-18T08:10:13.199Z,78.10
2019-03-18T08:12:39.406Z,77.80
2019-03-18T08:15:20.953Z,77.70
2019-03-18T08:17:49.719Z,77.90
2019-03-18T08:20:15.835Z,77.60
2019-03-18T08:22:41.908Z,77.50
2019-03-18T08:25:10.677Z,77.60
2019-03-18T08:27:39.517Z,77.40
2019-03-18T08:30:20.373Z,77.30
2019-03-18T08:32:49.300Z,77.30
2019-03-18T08:35:15.533Z,77.00
2019-03-18T08:37:41.824Z,76.40
2019-03-18T08:40:09.414Z,76.40
2019-03-18T08:42:54.619Z,76.50
2019-03-18T08:45:23.799Z,76.30
2019-03-18T08:48:08.660Z,76.00
2019-03-18T08:50:35.158Z,75.90
2019-03-18T08:53:19.812Z,76.00
2019-03-18T08:55:46.161Z,76.30
2019-03-18T08:58:15.070Z,76.50
2019-03-18T09:00:41.487Z,75.80
2019-03-18T09:03:08.027Z,75.10
2019-03-18T09:05:34.470Z,75.00
2019-03-18T09:08:00.910Z,75.50
2019-03-18T09:10:45.874Z,75.20
2019-03-18T09:13:15.013Z,74.40
2019-03-18T09:15:41.293Z,73.40
2019-03-18T09:18:07.687Z,73.00
2019-03-18T09:20:33.934Z,72.40
2019-03-18T09:23:01.475Z,72.60
2019-03-18T09:25:28.155Z,72.40
2019-03-18T09:27:54.549Z,71.80
2019-03-18T09:30:23.504Z,71.90
2019-03-18T09:32:53.099Z,71.60
2019-03-18T09:35:19.511Z,70.80
2019-03-18T09:37:45.959Z,70.40
2019-03-18T09:40:16.104Z,69.10
2019-03-18T09:42:42.603Z,68.70
2019-03-18T09:45:11.559Z,68.70
2019-03-18T09:47:37.894Z,69.80
2019-03-18T09:50:05.971Z,70.80
2019-03-18T09:52:48.624Z,71.40
2019-03-18T09:55:33.949Z,71.80
2019-03-18T09:58:00.470Z,71.80
2019-03-18T10:00:30.500Z,71.20
2019-03-18T10:02:56.943Z,71.50
2019-03-18T10:05:43.907Z,71.70
2019-03-18T10:08:25.097Z,74.00
2019-03-18T10:10:50.982Z,80.80
2019-03-18T10:13:20.375Z,80.30
2019-03-18T10:15:49.529Z,74.50
2019-03-18T10:18:18.477Z,68.70
2019-03-18T10:20:44.776Z,64.50
2019-03-18T10:23:11.065Z,62.10
2019-03-18T10:25:39.849Z,57.80
2019-03-18T10:28:06.421Z,54.80
2019-03-18T10:30:33.976Z,49.80
2019-03-18T10:33:00.595Z,47.30
2019-03-18T10:35:26.902Z,45.60
2019-03-18T10:37:55.834Z,45.20
2019-03-18T10:40:40.909Z,43.10
2019-03-18T10:43:07.088Z,44.50
2019-03-18T10:45:33.481Z,48.00
2019-03-18T10:48:02.805Z,45.80
2019-03-18T10:50:29.032Z,48.50
2019-03-18T10:52:58.538Z,52.90
2019-03-18T10:55:27.676Z,54.30
2019-03-18T10:58:12.600Z,49.00
2019-03-18T11:00:40.208Z,48.40
2019-03-18T11:03:06.772Z,49.80
2019-03-18T11:05:35.893Z,51.40
2019-03-18T11:08:20.587Z,57.00
2019-03-18T11:10:46.812Z,58.50
2019-03-18T11:13:13.344Z,55.20
2019-03-18T11:15:48.979Z,52.10
2019-03-18T11:18:15.290Z,50.80
2019-03-18T11:20:42.160Z,48.00
2019-03-18T11:23:26.726Z,47.20
2019-03-18T11:25:53.355Z,44.50
2019-03-18T11:28:22.525Z,41.90
2019-03-18T11:31:01.180Z,42.80
2019-03-18T11:33:28.605Z,45.30
2019-03-18T11:35:58.425Z,48.40
2019-03-18T11:38:25.172Z,50.60
2019-03-18T11:40:54.672Z,52.80
2019-03-18T11:43:40.000Z,54.20
2019-03-18T11:46:09.025Z,55.40
2019-03-18T11:48:35.212Z,56.60
2019-03-18T11:51:01.517Z,58.20
2019-03-18T11:53:46.669Z,57.10
2019-03-18T11:56:12.974Z,57.10
2019-03-18T11:58:39.346Z,56.10
2019-03-18T12:01:05.830Z,55.70
2019-03-18T12:03:32.207Z,55.10
2019-03-18T12:05:58.478Z,55.50
2019-03-18T12:08:24.710Z,55.10
2019-03-18T12:10:51.094Z,54.90
2019-03-18T12:13:35.831Z,55.30
2019-03-18T12:16:02.161Z,55.70
2019-03-18T12:18:28.336Z,55.30
2019-03-18T12:20:54.516Z,55.50
2019-03-18T12:23:20.723Z,55.60
2019-03-18T12:25:46.910Z,55.30
2019-03-18T12:28:13.082Z,54.70
2019-03-18T12:30:39.274Z,54.30
2019-03-18T12:33:05.549Z,53.30
2019-03-18T12:35:31.829Z,53.10
2019-03-18T12:38:16.671Z,53.20
2019-03-18T12:40:42.942Z,54.50
2019-03-18T12:43:09.181Z,55.20
2019-03-18T12:45:54.494Z,56.20
2019-03-18T12:48:24.020Z,56.90
2019-03-18T12:50:56.265Z,57.00
2019-03-18T12:53:18.784Z,56.80
2019-03-18T12:55:44.976Z,56.60
2019-03-18T12:58:11.155Z,56.80
2019-03-18T13:00:37.551Z,56.10
2019-03-18T13:03:22.758Z,56.00
2019-03-18T13:05:48.960Z,56.30
2019-03-18T13:08:18.172Z,56.20
2019-03-18T13:10:47.094Z,55.70
2019-03-18T13:13:16.091Z,55.20
2019-03-18T13:15:42.333Z,55.00
2019-03-18T13:18:11.128Z,53.10
2019-03-18T13:20:37.641Z,51.20
2019-03-18T13:23:22.698Z,51.00
2019-03-18T13:25:51.944Z,51.70
2019-03-18T13:28:21.140Z,53.10
2019-03-18T13:30:50.299Z,53.10
2019-03-18T13:33:34.835Z,54.10
2019-03-18T13:36:01.132Z,53.50
2019-03-18T13:38:27.524Z,52.90
2019-03-18T13:40:53.964Z,51.30
2019-03-18T13:43:22.917Z,50.30
2019-03-18T13:45:55.548Z,49.70
2019-03-18T13:48:20.167Z,50.20
2019-03-18T13:50:46.426Z,49.90
2019-03-18T13:53:12.886Z,50.20
2019-03-18T13:55:58.023Z,50.90
2019-03-18T13:58:26.961Z,50.60
2019-03-18T14:00:53.213Z,50.80
2019-03-18T14:03:22.286Z,51.50
2019-03-18T14:05:48.686Z,53.40
2019-03-18T14:08:17.491Z,52.90
2019-03-18T14:10:46.459Z,50.10
2019-03-18T14:13:12.658Z,47.90
2019-03-18T14:15:39.030Z,47.80
2019-03-18T14:18:20.673Z,49.40
2019-03-18T14:20:46.878Z,51.00
2019-03-18T14:23:13.087Z,50.40
2019-03-18T14:25:39.474Z,50.10
2019-03-18T14:28:08.385Z,49.70
2019-03-18T14:30:34.613Z,50.20
2019-03-18T14:33:00.811Z,50.70
2019-03-18T14:35:45.734Z,50.60
2019-03-18T14:38:12.118Z,51.30
2019-03-18T14:40:38.348Z,51.50
2019-03-18T14:43:04.536Z,52.00
2019-03-18T14:45:30.753Z,53.00
2019-03-18T14:47:56.949Z,51.90
2019-03-18T14:50:23.344Z,51.40
2019-03-18T14:53:01.900Z,50.70
2019-03-18T14:55:28.151Z,50.80
2019-03-18T14:57:54.424Z,51.20
2019-03-18T15:00:28.141Z,51.20
2019-03-18T15:02:56.927Z,51.50
2019-03-18T15:05:23.573Z,51.60
2019-03-18T15:07:49.823Z,51.80
2019-03-18T15:10:19.879Z,51.10
2019-03-18T15:12:46.084Z,50.90
2019-03-18T15:15:16.428Z,50.80
2019-03-18T15:17:42.730Z,50.00
2019-03-18T15:20:13.548Z,50.40
2019-03-18T15:22:42.552Z,50.70
2019-03-18T15:25:34.292Z,51.90
2019-03-18T15:28:00.528Z,52.20
2019-03-18T15:30:29.832Z,52.40
2019-03-18T15:32:58.982Z,52.80
2019-03-18T15:35:28.797Z,53.00
2019-03-18T15:37:55.010Z,52.80
2019-03-18T15:40:23.967Z,52.80
2019-03-18T15:42:56.351Z,52.90
2019-03-18T15:45:23.031Z,53.10
2019-03-18T15:47:51.936Z,53.80
2019-03-18T15:50:25.103Z,54.20
2019-03-18T15:52:51.577Z,54.80
2019-03-18T15:55:23.617Z,55.50
2019-03-18T15:58:07.255Z,55.40
2019-03-18T16:00:33.737Z,55.60
2019-03-18T16:03:18.621Z,55.60
2019-03-18T16:05:45.079Z,55.90
2019-03-18T16:08:30.022Z,56.00
2019-03-18T16:11:11.611Z,55.90
2019-03-18T16:13:37.883Z,56.00
2019-03-18T16:16:04.089Z,56.10
2019-03-18T16:18:30.315Z,56.00
2019-03-18T16:20:56.657Z,55.80
2019-03-18T16:23:25.638Z,55.30
2019-03-18T16:25:51.880Z,55.10
2019-03-18T16:28:18.102Z,54.50
2019-03-18T16:30:44.365Z,54.30
2019-03-18T16:33:13.635Z,53.90
2019-03-18T16:35:42.508Z,53.60
2019-03-18T16:38:08.790Z,53.80
2019-03-18T16:40:35.098Z,53.70
2019-03-18T16:43:01.488Z,54.10
2019-03-18T16:45:30.461Z,54.30
2019-03-18T16:47:59.365Z,54.30
2019-03-18T16:50:27.060Z,54.30
2019-03-18T16:52:53.367Z,54.10
2019-03-18T16:55:22.576Z,53.80
2019-03-18T16:58:07.577Z,53.60
2019-03-18T17:00:33.995Z,53.80
2019-03-18T17:03:00.302Z,53.80
2019-03-18T17:05:45.428Z,54.10
2019-03-18T17:08:14.875Z,54.00
2019-03-18T17:10:59.742Z,53.90
2019-03-18T17:13:28.916Z,53.80
2019-03-18T17:15:55.233Z,53.80
2019-03-18T17:18:40.313Z,54.00
2019-03-18T17:21:06.833Z,53.60
2019-03-18T17:23:45.549Z,53.60
2019-03-18T17:26:11.950Z,53.70
2019-03-18T17:28:38.500Z,53.90
2019-03-18T17:31:04.877Z,54.10
2019-03-18T17:33:31.250Z,54.10
2019-03-18T17:35:57.713Z,54.20
2019-03-18T17:38:26.849Z,54.30
2019-03-18T17:41:11.857Z,54.40
2019-03-18T17:43:38.198Z,54.40
2019-03-18T17:46:04.706Z,54.50
2019-03-18T17:48:49.591Z,54.70
2019-03-18T17:51:16.011Z,54.80
2019-03-18T17:53:57.653Z,55.00
2019-03-18T17:56:30.277Z,55.00
2019-03-18T17:59:10.525Z,55.00
2019-03-18T18:01:36.738Z,55.50
2019-03-18T18:04:03.210Z,55.90
2019-03-18T18:06:29.471Z,56.00
2019-03-18T18:09:14.422Z,56.10
2019-03-18T18:11:43.062Z,56.10
2019-03-18T18:14:08.730Z,55.80
2019-03-18T18:16:34.937Z,56.50
2019-03-18T18:19:01.201Z,56.60
2019-03-18T18:21:27.423Z,56.80
2019-03-18T18:23:53.654Z,57.00
2019-03-18T18:26:19.933Z,57.20
2019-03-18T18:28:46.275Z,57.20
2019-03-18T18:31:15.235Z,57.40
2019-03-18T18:33:41.560Z,57.60
2019-03-18T18:36:26.763Z,57.80
2019-03-18T18:38:52.999Z,57.90
2019-03-18T18:41:19.250Z,58.00
2019-03-18T18:43:45.472Z,58.10
2019-03-18T18:46:11.754Z,58.30
2019-03-18T18:48:40.683Z,58.30
2019-03-18T18:51:22.205Z,58.30
2019-03-18T18:53:48.527Z,58.40
2019-03-18T18:56:14.871Z,58.40
2019-03-18T18:58:41.153Z,58.60
2019-03-18T19:01:13.156Z,58.60
2019-03-18T19:03:41.053Z,58.60
2019-03-18T19:06:07.274Z,58.70
2019-03-18T19:08:33.519Z,58.70
2019-03-18T19:10:59.746Z,58.70
2019-03-18T19:13:25.955Z,59.00
2019-03-18T19:15:52.138Z,59.30
2019-03-18T19:18:18.380Z,60.20
2019-03-18T19:20:47.378Z,59.70
2019-03-18T19:23:13.592Z,59.80
2019-03-18T19:25:39.906Z,59.80
2019-03-18T19:28:15.638Z,59.90
2019-03-18T19:30:44.517Z,59.90
2019-03-18T19:33:10.789Z,60.10
2019-03-18T19:35:36.990Z,60.30
2019-03-18T19:38:05.947Z,60.30
2019-03-18T19:40:32.270Z,60.60
2019-03-18T19:42:58.530Z,60.40
2019-03-18T19:45:24.743Z,60.80
2019-03-18T19:47:52.998Z,60.80
2019-03-18T19:50:20.833Z,61.00
2019-03-18T19:52:56.154Z,60.90
2019-03-18T19:55:22.563Z,60.90
2019-03-18T19:57:55.032Z,61.00
2019-03-18T20:00:24.063Z,61.10
2019-03-18T20:02:50.461Z,60.90
2019-03-18T20:05:18.881Z,61.10
2019-03-18T20:07:44.774Z,61.30
2019-03-18T20:10:14.600Z,61.30
2019-03-18T20:12:41.057Z,61.50
2019-03-18T20:15:15.713Z,61.70
2019-03-18T20:17:57.363Z,61.70
2019-03-18T20:20:23.623Z,61.90
2019-03-18T20:22:52.530Z,62.00
2019-03-18T20:25:19.312Z,62.10
2019-03-18T20:27:45.640Z,62.30
2019-03-18T20:30:16.248Z,62.40
2019-03-18T20:32:42.645Z,62.50
2019-03-18T20:35:27.782Z,62.50
2019-03-18T20:38:00.268Z,62.60
2019-03-18T20:40:26.497Z,62.70
2019-03-18T20:42:52.852Z,62.80
2019-03-18T20:45:22.987Z,62.80
2019-03-18T20:47:49.316Z,62.90
2019-03-18T20:50:16.731Z,62.90
2019-03-18T20:52:42.966Z,63.00
2019-03-18T20:55:09.883Z,63.10
2019-03-18T20:57:36.416Z,63.10
2019-03-18T21:00:16.638Z,63.10
2019-03-18T21:02:42.859Z,63.20
2019-03-18T21:05:11.779Z,63.40
2019-03-18T21:07:38.015Z,63.50
2019-03-18T21:13:36.654Z,63.50
2019-03-18T21:16:05.539Z,63.60
2019-03-18T21:18:31.822Z,63.70
2019-03-18T21:20:58.139Z,63.70
2019-03-18T21:23:24.423Z,63.70
2019-03-18T21:25:50.629Z,63.80
2019-03-18T21:28:16.842Z,64.00
2019-03-18T21:30:43.152Z,64.00
2019-03-18T21:33:12.315Z,64.00
2019-03-18T21:35:41.468Z,64.00
2019-03-18T21:38:07.703Z,64.10
2019-03-18T21:40:36.764Z,64.10
2019-03-18T21:43:03.127Z,64.20
2019-03-18T21:45:29.343Z,64.30
2019-03-18T21:47:55.596Z,64.40
2019-03-18T21:50:21.877Z,64.40
2019-03-18T21:52:48.304Z,64.40
2019-03-18T21:55:15.500Z,64.50
2019-03-18T21:57:41.970Z,64.60
2019-03-18T22:00:21.357Z,64.70
2019-03-18T22:03:06.114Z,64.70
2019-03-18T22:05:32.356Z,64.70
2019-03-18T22:07:58.763Z,64.80
2019-03-18T22:10:25.017Z,65.10
2019-03-18T22:12:51.181Z,65.10
2019-03-18T22:15:17.507Z,65.00
2019-03-18T22:17:43.854Z,65.10
2019-03-18T22:20:14.117Z,65.50
2019-03-18T22:22:42.905Z,65.50
2019-03-18T22:25:12.554Z,65.70
2019-03-18T22:27:38.798Z,66.30
2019-03-18T22:30:09.127Z,66.10
2019-03-18T22:32:35.343Z,65.80
2019-03-18T22:35:01.818Z,65.70
2019-03-18T22:37:46.746Z,65.70
2019-03-18T22:40:14.143Z,65.90
2019-03-18T22:42:40.386Z,65.90
2019-03-18T22:45:10.534Z,66.20
2019-03-18T22:47:36.890Z,66.00
2019-03-18T22:50:05.718Z,66.20
2019-03-18T22:52:32.112Z,66.20
2019-03-18T22:54:58.412Z,66.40
2019-03-18T22:57:24.670Z,66.70
2019-03-18T22:59:51.045Z,67.50
2019-03-18T23:02:17.549Z,66.60
2019-03-18T23:04:46.658Z,66.40
2019-03-18T23:07:12.890Z,66.60
2019-03-18T23:09:39.109Z,66.60
2019-03-18T23:12:05.410Z,66.80
2019-03-18T23:14:31.997Z,66.90
2019-03-18T23:17:07.968Z,66.60
2019-03-18T23:19:34.354Z,66.50
2019-03-18T23:22:00.529Z,66.60
2019-03-18T23:24:26.739Z,66.70
2019-03-18T23:26:52.915Z,66.80
2019-03-18T23:29:31.416Z,66.80
2019-03-18T23:31:57.596Z,67.00
2019-03-18T23:34:26.396Z,66.90
2019-03-18T23:36:52.684Z,66.90
2019-03-18T23:39:18.916Z,66.90
2019-03-18T23:41:45.145Z,67.10
2019-03-18T23:44:11.350Z,67.10
2019-03-18T23:46:37.541Z,67.30
2019-03-18T23:49:03.740Z,67.20
2019-03-18T23:51:29.936Z,67.30
2019-03-18T23:54:05.184Z,67.30
2019-03-18T23:56:33.946Z,67.30
2019-03-18T23:59:00.241Z,67.50
